• Join FlightAware (Why Join?)
  • Login
  • US Flag 
 
01:08AM EST


 

Airport Tracker/Info


-or-


 

Live Flight TrackerFlight Track Log ✈ AWE478 ✈ 28-Mar-2014 ✈ KLAS - KDCA

Flight Track Log - Related Links

Times and Time Zones

All times are in EDT time to prevent confusion due to time zone crossing. See the AWE478 flight status page for this flight to view local times or setup timezone preferences in your user account.

Time Position Orientation Groundspeed Altitude Reporting Facility
EDT Latitude Longitude Course Direction KTS MPH feet Rate Location/Type
04:13PM 36.0761 -115.1789 93° East 184 212 3,400  Level Los Angeles Center
04:14PM 36.0750 -115.2031 267° West 184 212 3,800 1,380 Climbing Los Angeles Center
04:15PM 36.0878 -115.2814 281° West 260 299 5,400 1,740 Climbing Los Angeles Center
04:15PM 36.0969 -115.2856 340° North 246 283 5,800 2,640 Climbing Los Angeles Center
04:16PM 36.1834 -115.0278 90° East  Level FlightAware Approximate
04:16PM 36.1606 -115.2789 North 277 319 8,100  Level Los Angeles Center
04:16PM 36.1642 -115.2731 53° Northeast 262 302 8,400 2,100 Climbing Los Angeles Center
04:17PM 36.1869 -114.8584 80° East  Level FlightAware Approximate
04:17PM 36.1956 -115.1728 69° East 293 337 10,600  Level Los Angeles Center
04:18PM 36.1966 -114.6901 93° East  Level FlightAware Approximate
04:18PM 36.1969 -115.0567 89° East 339 390 11,500  Level Los Angeles Center
04:19PM 36.1983 -114.9256 89° East 374 430 13,400 2,040 Climbing Los Angeles Center
04:20PM 36.1989 -114.7842 90° East 383 441 15,800 1,860 Climbing Los Angeles Center
04:21PM 36.1972 -114.6475 91° East 391 450 17,300 1,380 Climbing Los Angeles Center
04:22PM 36.1958 -114.5036 91° East 412 474 18,700 1,440 Climbing Los Angeles Center
04:23PM 36.1933 -114.3561 91° East 424 488 20,300 1,380 Climbing Los Angeles Center
04:24PM 36.1964 -114.2056 89° East 435 501 21,600 1,200 Climbing Los Angeles Center
04:25PM 36.2183 -114.0233 81° East 444 511 22,900 1,200 Climbing Los Angeles Center
04:26PM 36.2372 -113.8678 81° East 453 521 24,200 1,140 Climbing Los Angeles Center
04:27PM 36.2564 -113.7072 82° East 464 534 25,300 960 Climbing Los Angeles Center
04:28PM 36.2747 -113.5464 82° East 467 537 26,200 780 Climbing Los Angeles Center
04:29PM 36.2942 -113.3808 82° East 480 552 27,000 780 Climbing Los Angeles Center
04:30PM 36.3247 -113.1978 78° East 491 565 27,900 900 Climbing Los Angeles Center
04:31PM 36.3786 -113.0422 67° East 493 567 28,900 960 Climbing Los Angeles Center
04:32PM 36.4358 -112.8875 65° Northeast 493 567 30,000 1,140 Climbing Los Angeles Center
04:33PM 36.5036 -112.7064 65° Northeast 489 563 31,300 1,020 Climbing Los Angeles Center
04:34PM 36.5583 -112.5542 66° East 487 560 32,200 720 Climbing Los Angeles Center
04:35PM 36.6133 -112.4042 65° Northeast 483 556 32,800 360 Climbing Los Angeles Center
04:36PM 36.6683 -112.2517 66° East 483 556 33,000 60 Climbing Los Angeles Center
04:37PM 36.7236 -112.0994 66° East 483 556 33,000  Level Los Angeles Center
04:39PM 36.7903 -111.9178 65° Northeast 483 556 33,000  Level Los Angeles Center
04:40PM 36.8436 -111.7656 66° East 483 556 33,000  Level Los Angeles Center
04:41PM 36.8978 -111.6136 66° East 483 556 33,000  Level Los Angeles Center
04:42PM 36.9531 -111.4608 66° East 483 556 33,000  Level Los Angeles Center
04:43PM 37.0069 -111.3056 66° East 484 557 33,000  Level Los Angeles Center
04:44PM 37.0733 -111.1219 66° East 485 558 33,000  Level Los Angeles Center
04:45PM 37.1461 -110.9075 67° East 482 555 33,000  Level Denver Center
04:46PM 37.2000 -110.7522 66° East 483 556 33,000  Level Denver Center
04:47PM 37.2531 -110.5981 67° East 484 557 33,000  Level Denver Center
04:48PM 37.3050 -110.4431 67° East 484 557 33,000  Level Denver Center
04:49PM 37.3594 -110.2875 66° East 485 558 33,000  Level Denver Center
04:50PM 37.4192 -110.1081 67° East 484 557 33,000  Level Denver Center
04:51PM 37.4694 -109.9583 67° East 485 558 33,000  Level Denver Center
04:52PM 37.5278 -109.7828 67° East 485 558 33,000  Level Denver Center
04:53PM 37.5778 -109.6311 67° East 486 559 33,000  Level Denver Center
04:54PM 37.6356 -109.4567 67° East 486 559 33,000  Level Denver Center
04:55PM 37.6683 -109.2947 76° East 495 570 33,000  Level Denver Center
04:57PM 37.7042 -109.1078 76° East 496 571 33,000  Level Denver Center
04:58PM 37.7361 -108.9481 76° East 495 570 33,000  Level Denver Center
04:59PM 37.7731 -108.7606 76° East 495 570 33,000  Level Denver Center
05:00PM 37.8022 -108.6011 77° East 493 567 33,000  Level Denver Center
05:01PM 37.8319 -108.4447 76° East 487 560 33,000  Level Denver Center
05:02PM 37.8681 -108.2581 76° East 485 558 33,000  Level Denver Center
05:03PM 37.8972 -108.0983 77° East 485 558 33,000  Level Denver Center
05:04PM 37.9319 -107.9108 77° East 486 559 33,000  Level Denver Center
05:05PM 37.9614 -107.7492 77° East 487 560 33,000  Level Denver Center
05:06PM 37.9967 -107.5600 77° East 492 566 33,000  Level Denver Center
05:07PM 38.0250 -107.3994 77° East 492 566 33,000  Level Denver Center
05:08PM 38.0589 -107.2108 77° East 492 566 33,000  Level Denver Center
05:09PM 38.0850 -107.0608 77° East 491 565 33,000  Level Denver Center
05:10PM 38.1144 -106.8928 77° East 490 564 33,000  Level Denver Center
05:11PM 38.1481 -106.7014 77° East 490 564 33,000  Level Denver Center
05:12PM 38.1800 -106.5122 78° East 490 564 33,000  Level Denver Center
05:13PM 38.2069 -106.3547 78° East 489 563 33,000  Level Denver Center
05:14PM 38.2392 -106.1667 78° East 488 562 33,000  Level Denver Center
05:15PM 38.2672 -105.9950 78° East 488 562 33,000  Level Denver Center
05:16PM 38.2939 -105.8342 78° East 488 562 33,000  Level Denver Center
05:17PM 38.3256 -105.6447 78° East 488 562 33,000  Level Denver Center
05:18PM 38.3503 -105.4950 78° East 488 562 33,000  Level Denver Center
05:19PM 38.3825 -105.2906 79° East 490 564 33,000  Level Denver Center
05:20PM 38.4094 -105.1219 78° East 491 565 33,000  Level Denver Center
05:21PM 38.4364 -104.9506 79° East 493 567 33,000  Level Denver Center
05:22PM 38.4636 -104.7806 78° East 493 567 33,000  Level Denver Center
05:23PM 38.4900 -104.6081 79° East 493 567 33,000  Level Denver Center
05:24PM 38.5164 -104.4364 79° East 494 568 33,000  Level Denver Center
05:25PM 38.5481 -104.2303 79° East 495 570 33,000  Level Denver Center
05:26PM 38.5742 -104.0539 79° East 491 565 33,000  Level Denver Center
05:27PM 38.5986 -103.8869 79° East 492 566 33,000  Level Denver Center
05:29PM 38.6267 -103.6931 79° East 493 567 33,000  Level Denver Center
05:30PM 38.6497 -103.5283 80° East 493 567 33,000  Level Denver Center
05:31PM 38.6772 -103.3406 79° East 493 567 33,000  Level Denver Center
05:32PM 38.7006 -103.1689 80° East 492 566 33,000  Level Denver Center
05:33PM 38.7244 -102.9981 80° East 492 566 33,000  Level Denver Center
05:34PM 38.7489 -102.8267 80° East 492 566 33,100  Climbing Denver Center
05:35PM 38.7728 -102.6442 80° East 490 564 33,000 -60 Descending Denver Center
05:36PM 38.7989 -102.4536 80° East 487 560 33,000 -60 Level Denver Center
05:37PM 38.8200 -102.2914 80° East 486 559 32,900  Descending Denver Center
05:38PM 38.8458 -102.0994 80° East 486 559 33,000 60 Climbing Denver Center
05:39PM 38.8672 -101.9350 80° East 486 559 33,100  Climbing Denver Center
05:40PM 38.8914 -101.7439 81° East 486 559 33,100 -60 Level Denver Center
05:41PM 38.9122 -101.5792 81° East 487 560 33,000 -60 Descending Denver Center
05:42PM 38.9331 -101.4167 81° East 485 558 33,000  Level Denver Center
05:43PM 38.9564 -101.2275 81° East 482 555 33,000  Level Denver Center
05:44PM 38.9764 -101.0653 81° East 479 551 33,000  Level Denver Center
05:45PM 38.9992 -100.8772 81° East 479 551 33,000  Level Denver Center
05:46PM 39.0181 -100.7158 81° East 478 550 33,000  Level Denver Center
05:47PM 39.0347 -100.5825 81° East 478 550 33,000  Level Denver Center
05:48PM 39.0583 -100.3669 82° East 477 549 33,000  Level Denver Center
05:49PM 39.0836 -100.1492 81° East 479 551 33,000  Level Denver Center
05:50PM 39.1031 -99.9828 81° East 482 555 33,000  Level Denver Center
05:51PM 39.1242 -99.7894 82° East 486 559 33,100  Climbing Denver Center
05:53PM 39.1428 -99.6275 82° East 483 556 33,000 -60 Descending Denver Center
05:54PM 39.1619 -99.4367 83° East 482 555 33,000  Level Denver Center
05:55PM 39.1797 -99.2761 82° East 478 550 33,000  Level Denver Center
05:56PM 39.1989 -99.0886 82° East 479 551 33,000  Level Denver Center
05:57PM 39.2172 -98.9075 82° East 481 554 33,000  Level Kansas City Center
05:58PM 39.2344 -98.7333 83° East 480 552 33,000  Level Kansas City Center
05:59PM 39.2544 -98.5403 82° East 481 554 33,000  Level Kansas City Center
06:00PM 39.2719 -98.3589 83° East 481 554 33,000  Level Kansas City Center
06:01PM 39.2889 -98.1856 83° East 481 554 33,000  Level Kansas City Center
06:02PM 39.3033 -98.0236 83° East 477 549 33,000  Level Kansas City Center
06:03PM 39.3203 -97.8489 83° East 477 549 33,000  Level Kansas City Center
06:04PM 39.3367 -97.6775 83° East 479 551 33,000  Level Kansas City Center
06:05PM 39.3544 -97.4800 83° East 479 551 33,000  Level Kansas City Center
06:06PM 39.3689 -97.3175 83° East 478 550 33,000  Level Kansas City Center
06:07PM 39.3836 -97.1539 83° East 478 550 33,000  Level Kansas City Center
06:08PM 39.4003 -96.9619 84° East 478 550 33,000  Level Kansas City Center
06:09PM 39.4133 -96.7981 84° East 479 551 33,000  Level Kansas City Center
06:10PM 39.4286 -96.6081 84° East 478 550 33,000  Level Kansas City Center
06:11PM 39.4419 -96.4506 84° East 478 550 33,000  Level Kansas City Center
06:12PM 39.4581 -96.2542 84° East 477 549 33,000  Level Kansas City Center
06:13PM 39.4708 -96.0894 84° East 477 549 33,000  Level Kansas City Center
06:14PM 39.4856 -95.8978 84° East 478 550 33,000  Level Kansas City Center
06:15PM 39.4975 -95.7317 85° East 479 551 33,000  Level Kansas City Center
06:16PM 39.5122 -95.5378 84° East 481 554 33,000  Level Kansas City Center
06:17PM 39.5244 -95.3658 85° East 480 552 33,000  Level Kansas City Center
06:19PM 39.5375 -95.1847 85° East 481 554 33,000  Level Kansas City Center
06:20PM 39.5486 -95.0081 85° East 481 554 33,000  Level Kansas City Center
06:21PM 39.5603 -94.8403 85° East 483 556 33,000  Level Kansas City Center
06:22PM 39.5733 -94.6442 85° East 484 557 33,000  Level Kansas City Center
06:23PM 39.5842 -94.4756 85° East 486 559 33,000  Level Kansas City Center
06:24PM 39.5975 -94.2808 85° East 486 559 33,000  Level Kansas City Center
06:25PM 39.6075 -94.1139 86° East 486 559 33,000  Level Kansas City Center
06:26PM 39.6175 -93.9475 85° East 485 558 33,000  Level Kansas City Center
06:27PM 39.6289 -93.7533 86° East 485 558 33,000  Level Kansas City Center
06:28PM 39.6369 -93.5956 86° East 484 557 33,000  Level Kansas City Center
06:29PM 39.6489 -93.3892 86° East 484 557 33,000  Level Kansas City Center
06:30PM 39.6589 -93.2189 86° East 483 556 33,000  Level Kansas City Center
06:31PM 39.6669 -93.0431 87° East 487 560 33,000  Level Kansas City Center
06:32PM 39.6753 -92.8669 86° East 490 564 33,000  Level Kansas City Center
06:33PM 39.6861 -92.6589 86° East 489 563 33,000  Level Kansas City Center
06:34PM 39.6936 -92.4847 87° East 490 564 33,000  Level Kansas City Center
06:35PM 39.7017 -92.3086 87° East 490 564 33,000  Level Kansas City Center
06:36PM 39.7083 -92.1344 87° East 490 564 33,000  Level Kansas City Center
06:37PM 39.7156 -91.9578 87° East 491 565 33,000  Level Kansas City Center
06:38PM 39.7244 -91.7444 87° East 494 568 33,000  Level Kansas City Center
06:39PM 39.7314 -91.5658 87° East 497 572 33,000  Level Kansas City Center
06:40PM 39.7381 -91.3864 87° East 499 574 33,000  Level Kansas City Center
06:41PM 39.7456 -91.2106 87° East 501 577 33,000  Level Kansas City Center
06:42PM 39.7522 -90.9931 88° East 502 578 33,000  Level Kansas City Center
06:43PM 39.7586 -90.8339 87° East 502 578 33,000  Level Kansas City Center
06:44PM 39.7653 -90.6147 88° East 503 579 33,000  Level Kansas City Center
06:45PM 39.7697 -90.4331 88° East 504 580 33,000  Level Kansas City Center
06:46PM 39.7750 -90.2514 88° East 504 580 33,000  Level Kansas City Center
06:47PM 39.7792 -90.0708 88° East 504 580 33,000  Level Kansas City Center
06:49PM 39.7842 -89.8908 88° East 504 580 33,000  Level Kansas City Center
06:50PM 39.7878 -89.7111 88° East 504 580 33,000  Level Kansas City Center
06:51PM 39.7922 -89.4975 88° East 501 577 33,000  Level Kansas City Center
06:52PM 39.7964 -89.3178 88° East 500 575 33,000  Level Kansas City Center
06:53PM 39.8000 -89.1386 88° East 500 575 33,000  Level Kansas City Center
06:54PM 39.8028 -88.9597 89° East 499 574 33,000  Level Kansas City Center
06:55PM 39.8058 -88.7789 89° East 499 574 33,000  Level Kansas City Center
06:56PM 39.8081 -88.5628 89° East 500 575 33,000  Level Kansas City Center
06:57PM 39.8111 -88.3803 89° East 502 578 33,000  Level Kansas City Center
06:58PM 39.8153 -88.1861 88° East 507 583 33,000  Level Kansas City Center
06:59PM 39.8158 -88.0022 90° East 507 583 33,000  Level Kansas City Center
07:00PM 39.8150 -87.8492 90° East 503 579 33,000  Level Indianapolis Center
07:01PM 39.8161 -87.6664 89° East 504 580 33,000  Level Indianapolis Center
07:02PM 39.8175 -87.4472 89° East 505 581 33,000  Level Indianapolis Center
07:03PM 39.8178 -87.2631 90° East 506 582 33,000  Level Indianapolis Center
07:04PM 39.8175 -87.0794 90° East 507 583 33,000  Level Indianapolis Center
07:05PM 39.8172 -86.8936 90° East 508 585 33,000  Level Indianapolis Center
07:06PM 39.8167 -86.7100 90° East 510 587 33,000  Level Indianapolis Center
07:07PM 39.8156 -86.5233 90° East 510 587 33,000  Level Indianapolis Center
07:08PM 39.8214 -86.3039 88° East 511 588 33,000  Level Indianapolis Center
07:09PM 39.8389 -86.1381 82° East 521 600 33,000  Level Indianapolis Center
07:10PM 39.8581 -85.9500 82° East 523 602 33,000  Level Indianapolis Center
07:11PM 39.8806 -85.7264 82° East 522 601 33,000  Level Indianapolis Center
07:12PM 39.8992 -85.5400 83° East 522 601 33,000  Level Indianapolis Center
07:13PM 39.9172 -85.3547 83° East 521 600 33,000  Level Indianapolis Center
07:14PM 39.9353 -85.1689 83° East 521 600 33,000 -480 Level Indianapolis Center
07:15PM 39.9536 -84.9792 83° East 524 603 32,100 -960 Descending Indianapolis Center
07:16PM 39.9725 -84.7575 84° East 549 632 31,100 -540 Descending Indianapolis Center
07:17PM 39.9922 -84.5600 83° East 553 636 31,000 -60 Descending Indianapolis Center
07:18PM 40.0086 -84.3703 84° East 536 617 31,000  Level Indianapolis Center
07:19PM 40.0253 -84.1772 84° East 536 617 31,000  Level Indianapolis Center
07:20PM 40.0419 -83.9839 84° East 536 617 31,000  Level Indianapolis Center
07:21PM 40.0589 -83.7889 83° East 536 617 31,000  Level Indianapolis Center
07:22PM 40.0747 -83.5925 84° East 536 617 31,000  Level Indianapolis Center
07:23PM 40.0906 -83.3944 84° East 536 617 31,000  Level Indianapolis Center
07:25PM 40.1086 -83.1583 84° East 536 617 31,000  Level Indianapolis Center
07:26PM 40.1228 -82.9644 84° East 536 617 31,000  Level Indianapolis Center
07:27PM 40.1372 -82.7711 84° East 536 617 31,000  Level Indianapolis Center
07:28PM 40.1328 -82.5808 92° East 525 604 31,000  Level Indianapolis Center
07:29PM 40.0956 -82.3992 105° East 521 600 31,000  Level Indianapolis Center
07:30PM 40.0439 -82.2289 112° Southeast 512 589 31,000  Level Indianapolis Center
07:31PM 39.9928 -82.0581 111° Southeast 507 583 31,000  Level Indianapolis Center
07:32PM 39.9419 -81.8867 111° Southeast 507 583 31,000  Level Indianapolis Center
07:33PM 39.8786 -81.6731 111° Southeast 522 601 31,000  Level Indianapolis Center
07:34PM 39.8278 -81.4922 110° East 529 609 31,000  Level Indianapolis Center
07:35PM 39.7786 -81.3156 110° East 530 610 31,000  Level Indianapolis Center
07:36PM 39.7317 -81.1333 108° East 529 609 31,000  Level Indianapolis Center
07:37PM 39.6869 -80.9503 108° East 529 609 31,000  Level Indianapolis Center
07:38PM 39.6417 -80.7672 108° East 529 609 31,000  Level Indianapolis Center
07:39PM 39.5964 -80.5853 108° East 529 609 31,000  Level Indianapolis Center
07:40PM 39.5408 -80.3692 108° East 528 608 31,000  Level Indianapolis Center
07:42PM 39.4647 -80.0778 109° East 526 605 31,000  Level Cleveland Center
07:42PM 39.4494 -80.0047 105° East 528 608 31,000  Level Washington Center
07:43PM 39.4039 -79.8247 108° East 528 608 31,000  Level Washington Center
07:44PM 39.3558 -79.6447 109° East 528 608 31,000 -360 Level Washington Center
07:45PM 39.3117 -79.4653 108° East 528 608 30,300 -1,320 Descending Washington Center
07:46PM 39.2653 -79.2883 109° East 528 608 28,400 -1,920 Descending Washington Center
07:47PM 39.2350 -79.1128 103° East 528 608 26,500 -1,920 Descending Washington Center
07:48PM 39.2211 -78.9433 96° East 502 578 24,700 -1,920 Descending Washington Center
07:49PM 39.2047 -78.7792 97° East 478 550 22,800 -2,220 Descending Washington Center
07:50PM 39.1900 -78.6258 97° East 452 520 20,200 -2,220 Descending Washington Center
07:51PM 39.1747 -78.4806 98° East 430 495 18,400 -1,800 Descending Washington Center
07:52PM 39.1572 -78.3406 99° East 405 466 16,700 -1,500 Descending Washington Center
07:53PM 39.1247 -78.2111 108° East 385 443 15,400 -1,380 Descending Washington Center
07:54PM 39.0919 -78.0814 108° East 380 437 14,000 -1,440 Descending Washington Center
07:55PM 39.0592 -77.9547 108° East 380 437 12,600 -1,440 Descending Washington Center
07:56PM 39.0261 -77.8253 108° East 351 404 11,200 -1,260 Descending Washington Center
07:57PM 38.9969 -77.7097 108° East 346 398 10,100 -1,200 Descending Washington Center
07:58PM 38.9694 -77.6047 109° East 325 374 8,800 -1,020 Descending Washington Center
07:59PM 38.9667 -77.4833 92° East 290 334 7,900 -1,080 Descending Potomac TRACON
08:00PM 39.0000 -77.3833 67° East 262 302 6,300 -1,440 Descending Potomac TRACON
08:01PM 39.0000 -77.3000 90° East 262 302 5,000 -1,200 Descending Potomac TRACON
08:03PM 39.0000 -77.2000 90° East 217 250 4,000 -1,200 Descending Potomac TRACON
08:04PM 38.9667 -77.1500 131° Southeast 193 222 2,600 -1,200 Descending Potomac TRACON
08:04PM 38.9333 -77.1167 142° Southeast 144 166 1,800 -840 Descending Potomac TRACON
08:05PM 38.9000 -77.0833 142° Southeast 145 167 1,100 -720 Descending Potomac TRACON
08:06PM 38.8833 -77.0500 123° Southeast 140 161 400 -720 Descending Potomac TRACON